createdAt,value
2023-05-05T05:08:15.985Z,14.10
2023-05-05T05:12:51.710Z,14.00
2023-05-05T05:17:53.720Z,14.00
2023-05-05T05:22:55.680Z,14.10
2023-05-05T05:28:08.945Z,14.10
2023-05-05T05:33:12.335Z,14.10
2023-05-05T05:38:14.276Z,14.20
2023-05-05T05:43:16.210Z,14.30
2023-05-05T05:48:18.036Z,14.30
2023-05-05T05:53:19.904Z,14.40
2023-05-05T05:58:21.690Z,14.50
2023-05-05T06:03:24.186Z,14.60
2023-05-05T06:08:26.993Z,14.80
2023-05-05T06:13:28.834Z,14.90
2023-05-05T06:18:30.714Z,15.00
2023-05-05T06:23:32.543Z,15.10
2023-05-05T06:28:34.383Z,15.10
2023-05-05T06:33:36.178Z,15.20
2023-05-05T06:38:37.949Z,15.30
2023-05-05T06:43:39.846Z,15.50
2023-05-05T06:48:41.734Z,15.50
2023-05-05T06:53:43.520Z,15.60
2023-05-05T06:58:45.339Z,15.80
2023-05-05T07:03:47.269Z,15.90
2023-05-05T07:08:49.303Z,16.10
2023-05-05T07:13:51.179Z,16.30
2023-05-05T07:18:53.044Z,16.50
2023-05-05T07:23:54.864Z,16.60
2023-05-05T07:28:58.697Z,16.70
2023-05-05T07:34:00.670Z,16.90
2023-05-05T07:39:02.509Z,16.90
2023-05-05T07:44:04.479Z,17.00
2023-05-05T07:49:06.436Z,17.20
2023-05-05T07:54:08.650Z,17.40
2023-05-05T07:59:11.500Z,17.50
2023-05-05T08:04:13.932Z,17.70
2023-05-05T08:09:15.836Z,18.00
2023-05-05T08:14:17.684Z,18.10
2023-05-05T08:19:28.624Z,18.30
2023-05-05T08:24:31.402Z,18.40
2023-05-05T08:29:33.296Z,18.50
2023-05-05T08:34:35.255Z,18.70
2023-05-05T08:39:37.718Z,18.70
2023-05-05T08:44:39.649Z,18.90
2023-05-05T08:49:48.115Z,19.00
2023-05-05T08:54:55.166Z,19.10
2023-05-05T08:59:57.305Z,19.10
2023-05-05T09:05:00.701Z,19.10
2023-05-05T09:10:04.765Z,19.10
2023-05-05T09:15:11.664Z,19.10
2023-05-05T09:20:14.793Z,19.10
2023-05-05T09:25:18.071Z,19.20
2023-05-05T09:30:29.214Z,19.30
2023-05-05T09:35:49.333Z,19.30
2023-05-05T09:40:52.891Z,19.30
2023-05-05T09:46:07.752Z,19.40
2023-05-05T09:51:09.748Z,19.40
2023-05-05T09:56:11.639Z,19.40
2023-05-05T10:01:23.738Z,19.40
2023-05-05T10:06:43.536Z,19.30
2023-05-05T10:11:47.232Z,19.20
2023-05-05T10:16:51.121Z,19.10
2023-05-05T10:21:54.802Z,19.00
2023-05-05T10:26:58.744Z,18.90
2023-05-05T10:37:44.996Z,18.00
2023-05-05T10:42:48.297Z,16.70
2023-05-05T10:47:51.531Z,16.20
2023-05-05T10:53:04.238Z,15.70
2023-05-05T10:58:06.344Z,15.30
2023-05-05T11:03:17.345Z,15.00
2023-05-05T11:08:26.884Z,14.80
2023-05-05T11:13:29.006Z,14.60
2023-05-05T11:18:36.018Z,14.30
2023-05-05T11:23:37.985Z,14.20
2023-05-05T11:29:04.743Z,14.10
2023-05-05T11:34:27.016Z,13.90
2023-05-05T11:39:44.111Z,13.90
2023-05-05T11:44:46.049Z,13.80
2023-05-05T11:49:49.599Z,13.90
2023-05-05T11:54:51.406Z,14.00
2023-05-05T12:00:01.345Z,14.00
2023-05-05T12:05:03.978Z,14.10
2023-05-05T12:10:07.304Z,14.10
2023-05-05T12:15:09.799Z,14.10
2023-05-05T12:20:13.929Z,14.20
2023-05-05T12:25:16.220Z,14.20
2023-05-05T12:30:18.530Z,14.20
2023-05-05T12:35:20.627Z,14.10
2023-05-05T12:40:47.434Z,14.20
2023-05-05T12:46:02.100Z,14.20
2023-05-05T12:51:31.390Z,14.30
2023-05-05T12:56:40.714Z,14.30
2023-05-05T13:01:53.358Z,14.40
2023-05-05T13:07:15.245Z,14.30
2023-05-05T13:12:21.725Z,14.20
2023-05-05T13:17:24.664Z,14.10
2023-05-05T13:22:26.499Z,14.20
2023-05-05T13:27:28.418Z,14.10
2023-05-05T13:32:30.269Z,14.00
2023-05-05T13:37:32.063Z,13.90
2023-05-05T13:42:33.907Z,13.70
2023-05-05T13:47:35.830Z,13.50
2023-05-05T13:52:38.456Z,13.40
2023-05-05T13:57:40.319Z,13.30
2023-05-05T14:02:42.846Z,13.40
2023-05-05T14:07:46.114Z,13.60
2023-05-05T14:12:48.507Z,13.70
2023-05-05T14:17:50.381Z,13.90
2023-05-05T14:22:53.416Z,13.90
2023-05-05T14:27:55.745Z,14.00
2023-05-05T14:32:57.621Z,14.00
2023-05-05T14:37:59.502Z,14.10
2023-05-05T14:43:01.306Z,14.10
2023-05-05T14:48:03.270Z,14.20
2023-05-05T14:53:05.258Z,14.20
2023-05-05T14:58:07.088Z,14.20
2023-05-05T15:03:09.029Z,14.20
2023-05-05T15:08:11.161Z,14.20
2023-05-05T15:13:13.269Z,14.10
2023-05-05T15:18:15.185Z,14.20
2023-05-05T15:23:17.139Z,14.30
2023-05-05T15:28:19.017Z,14.30
2023-05-05T15:33:20.826Z,14.30
2023-05-05T15:38:22.931Z,14.30
2023-05-05T15:43:24.783Z,14.30
2023-05-05T15:48:26.846Z,14.40
2023-05-05T15:53:28.835Z,14.40
2023-05-05T15:58:30.788Z,14.50
2023-05-05T16:03:32.705Z,14.60
2023-05-05T16:08:35.181Z,14.80
2023-05-05T16:13:39.217Z,14.90
2023-05-05T16:18:41.077Z,15.20
2023-05-05T16:23:43.436Z,15.50
2023-05-05T16:28:45.305Z,15.70
2023-05-05T16:33:47.242Z,15.80
2023-05-05T16:38:50.035Z,16.00
2023-05-05T16:43:51.948Z,16.20
2023-05-05T16:48:53.872Z,16.30
2023-05-05T16:53:55.959Z,16.30
2023-05-05T16:58:57.970Z,16.30
2023-05-05T17:04:02.416Z,16.20
2023-05-05T17:09:06.182Z,16.30
2023-05-05T17:14:08.206Z,16.20
2023-05-05T17:19:10.204Z,16.20
2023-05-05T17:24:12.108Z,16.20
2023-05-05T17:29:15.184Z,16.10
2023-05-05T17:34:17.240Z,16.10
2023-05-05T17:39:19.214Z,15.90
2023-05-05T17:44:21.286Z,15.90
2023-05-05T17:49:25.299Z,15.80
2023-05-05T17:54:27.352Z,15.70
2023-05-05T17:59:31.375Z,15.60
2023-05-05T18:04:33.221Z,15.60
2023-05-05T18:09:35.053Z,15.50
2023-05-05T18:14:36.930Z,15.50
2023-05-05T18:19:42.321Z,15.50
2023-05-05T18:24:46.105Z,15.40
2023-05-05T18:29:47.985Z,15.40
2023-05-05T18:34:49.996Z,15.30
2023-05-05T18:39:51.858Z,15.30
2023-05-05T18:44:54.395Z,15.20
2023-05-05T18:49:56.433Z,15.20
2023-05-05T18:54:59.688Z,15.10
2023-05-05T19:00:01.643Z,15.10
2023-05-05T19:05:03.905Z,15.00
2023-05-05T19:10:06.481Z,15.00
2023-05-05T19:15:08.908Z,14.80
2023-05-05T19:20:11.504Z,14.80
2023-05-05T19:25:14.480Z,14.70
2023-05-05T19:30:16.429Z,14.60
2023-05-05T19:35:18.323Z,14.60
2023-05-05T19:47:57.209Z,14.40
2023-05-05T19:59:49.454Z,14.30
